createdAt,value
2023-03-16T00:01:06.199Z,13.38
2023-03-16T00:03:38.238Z,15.18
2023-03-16T00:06:10.155Z,15.25
2023-03-16T00:08:43.244Z,14.02
2023-03-16T00:11:14.903Z,14.15
2023-03-16T00:13:47.856Z,15.90
2023-03-16T00:16:19.577Z,14.25
2023-03-16T00:18:51.300Z,16.05
2023-03-16T00:21:22.984Z,14.90
2023-03-16T00:23:54.655Z,16.55
2023-03-16T00:26:26.437Z,15.98
2023-03-16T00:28:58.321Z,17.35
2023-03-16T00:31:30.056Z,15.10
2023-03-16T00:34:04.679Z,14.18
2023-03-16T00:36:38.313Z,18.23
2023-03-16T00:39:11.850Z,18.35
2023-03-16T00:41:44.076Z,16.02
2023-03-16T00:44:16.863Z,15.45
2023-03-16T00:46:48.488Z,15.35
2023-03-16T00:49:22.461Z,15.40
2023-03-16T00:51:54.259Z,16.05
2023-03-16T00:54:27.124Z,15.55
2023-03-16T00:57:00.135Z,15.32
2023-03-16T00:59:32.130Z,16.98
2023-03-16T01:02:05.508Z,16.17
2023-03-16T01:04:38.079Z,19.35
2023-03-16T01:07:13.493Z,17.25
2023-03-16T01:09:45.601Z,15.50
2023-03-16T01:12:19.522Z,18.35
2023-03-16T01:14:51.233Z,14.53
2023-03-16T01:17:23.952Z,20.23
2023-03-16T01:19:55.653Z,19.27
2023-03-16T01:22:28.640Z,18.23
2023-03-16T01:25:00.327Z,17.20
2023-03-16T01:27:32.979Z,17.45
2023-03-16T01:30:06.352Z,14.63
2023-03-16T01:32:39.969Z,18.17
2023-03-16T01:35:12.704Z,15.98
2023-03-16T01:37:44.649Z,16.13
2023-03-16T01:40:22.246Z,16.27
2023-03-16T01:43:04.864Z,18.42
2023-03-16T01:46:06.087Z,17.73
2023-03-16T01:49:05.518Z,15.38
2023-03-16T01:51:50.857Z,17.13
2023-03-16T01:54:34.273Z,16.75
2023-03-16T01:57:10.457Z,15.75
2023-03-16T01:59:49.420Z,16.05
2023-03-16T02:02:24.126Z,14.85
2023-03-16T02:05:08.128Z,17.85
2023-03-16T02:07:46.447Z,16.05
2023-03-16T02:10:20.391Z,15.38
2023-03-16T02:12:53.471Z,14.55
2023-03-16T02:15:27.366Z,16.48
2023-03-16T02:18:00.263Z,16.20
2023-03-16T02:21:07.324Z,14.35
2023-03-16T02:23:39.108Z,14.13
2023-03-16T02:26:35.668Z,17.95
2023-03-16T02:29:40.393Z,15.50
2023-03-16T02:32:14.421Z,18.80
2023-03-16T02:34:46.285Z,16.13
2023-03-16T02:37:18.556Z,19.08
2023-03-16T02:39:52.359Z,16.65
2023-03-16T02:42:28.997Z,16.63
2023-03-16T02:45:05.340Z,14.43
2023-03-16T02:47:44.621Z,16.90
2023-03-16T02:50:17.229Z,16.08
2023-03-16T02:52:48.998Z,18.00
2023-03-16T02:55:21.795Z,17.35
2023-03-16T02:57:53.818Z,17.35
2023-03-16T03:00:26.098Z,17.08
2023-03-16T03:02:59.025Z,14.40
2023-03-16T03:05:30.988Z,16.58
2023-03-16T03:08:03.231Z,17.02
2023-03-16T03:10:35.059Z,17.05
2023-03-16T03:13:07.470Z,16.15
2023-03-16T03:15:40.135Z,17.85
2023-03-16T03:18:14.890Z,15.70
2023-03-16T03:20:46.599Z,16.55
2023-03-16T03:23:20.443Z,16.52
2023-03-16T03:25:52.112Z,17.07
2023-03-16T03:28:23.971Z,14.55
2023-03-16T03:30:57.170Z,16.75
2023-03-16T03:33:29.168Z,16.88
2023-03-16T03:36:03.026Z,16.90
2023-03-16T03:38:43.643Z,15.93
2023-03-16T03:41:15.472Z,14.05
2023-03-16T03:43:47.583Z,16.33
2023-03-16T03:46:22.582Z,15.50
2023-03-16T03:48:54.336Z,12.65
2023-03-16T03:51:26.032Z,15.65
2023-03-16T03:54:04.948Z,17.75
2023-03-16T03:56:45.680Z,14.13
2023-03-16T03:59:20.866Z,16.55
2023-03-16T04:02:04.586Z,13.77
2023-03-16T04:04:47.755Z,13.70
2023-03-16T04:07:20.319Z,14.07
2023-03-16T04:09:53.569Z,15.52
2023-03-16T04:12:40.217Z,13.73
2023-03-16T04:15:16.156Z,13.25
2023-03-16T04:18:13.006Z,13.77
2023-03-16T04:20:45.881Z,16.13
2023-03-16T04:23:22.340Z,14.05
2023-03-16T04:25:55.534Z,15.97
2023-03-16T04:28:27.874Z,13.88
2023-03-16T04:31:05.381Z,16.35
2023-03-16T04:33:42.416Z,14.43
2023-03-16T04:36:14.800Z,14.75
2023-03-16T04:38:47.808Z,16.55
2023-03-16T04:41:22.618Z,14.43
2023-03-16T04:44:07.887Z,16.27
2023-03-16T04:46:40.271Z,17.15
2023-03-16T04:49:14.620Z,18.42
2023-03-16T04:54:24.217Z,18.45
2023-03-16T04:56:55.902Z,18.70
2023-03-16T04:59:41.723Z,16.48
2023-03-16T05:02:35.499Z,17.38
2023-03-16T05:05:10.932Z,15.60
2023-03-16T05:07:46.541Z,14.93
2023-03-16T05:10:19.372Z,17.20
2023-03-16T05:12:52.159Z,16.40
2023-03-16T05:15:23.949Z,17.33
2023-03-16T05:18:03.898Z,17.45
2023-03-16T05:20:35.995Z,19.98
2023-03-16T05:23:09.262Z,17.35
2023-03-16T05:25:49.546Z,18.30
2023-03-16T05:28:23.742Z,18.75
2023-03-16T05:31:07.337Z,16.55
2023-03-16T05:33:49.751Z,20.80
2023-03-16T05:39:03.232Z,21.15
2023-03-16T05:41:41.708Z,16.88
2023-03-16T05:44:21.227Z,16.15
2023-03-16T05:47:19.858Z,20.33
2023-03-16T05:49:56.391Z,18.02
2023-03-16T05:52:35.692Z,16.25
2023-03-16T05:55:17.209Z,16.77
2023-03-16T05:57:52.270Z,17.15
2023-03-16T06:00:25.759Z,14.70
2023-03-16T06:03:08.031Z,14.70
2023-03-16T06:05:42.778Z,17.23
2023-03-16T06:08:17.403Z,16.92
2023-03-16T06:10:52.339Z,17.73
2023-03-16T06:13:25.409Z,16.98
2023-03-16T06:15:57.161Z,16.52
2023-03-16T06:18:35.509Z,14.07
2023-03-16T06:21:08.070Z,16.85
2023-03-16T06:23:40.863Z,14.32
2023-03-16T06:26:13.784Z,12.75
2023-03-16T06:28:48.877Z,12.43
2023-03-16T06:31:20.785Z,14.57
2023-03-16T06:33:52.853Z,13.18
2023-03-16T06:36:25.984Z,12.05
2023-03-16T06:39:01.300Z,12.77
2023-03-16T06:41:53.520Z,12.38
2023-03-16T06:44:28.761Z,16.98
2023-03-16T06:47:15.073Z,18.13
2023-03-16T06:49:47.075Z,20.15
2023-03-16T06:52:24.016Z,19.25
2023-03-16T06:54:58.232Z,17.73
2023-03-16T06:57:31.468Z,14.98
2023-03-16T07:00:04.651Z,12.52
2023-03-16T07:02:36.385Z,12.52
2023-03-16T07:05:13.399Z,16.60
2023-03-16T07:07:45.608Z,12.95
2023-03-16T07:10:18.425Z,15.82
2023-03-16T07:12:50.538Z,12.82
2023-03-16T07:15:25.647Z,17.98
2023-03-16T07:17:59.882Z,13.13
2023-03-16T07:20:33.058Z,13.32
2023-03-16T07:23:08.267Z,13.48
2023-03-16T07:25:40.661Z,13.77
2023-03-16T07:28:12.726Z,12.55
2023-03-16T07:33:40.755Z,12.27
2023-03-16T07:36:16.267Z,11.93
2023-03-16T07:38:57.491Z,12.70
2023-03-16T07:41:31.623Z,11.77
2023-03-16T07:44:18.659Z,13.20
2023-03-16T07:46:53.635Z,13.40
2023-03-16T07:49:29.344Z,13.43
2023-03-16T07:52:03.451Z,15.25
2023-03-16T07:54:43.407Z,13.70
2023-03-16T07:57:18.803Z,13.30
2023-03-16T07:59:50.563Z,12.60
2023-03-16T08:02:23.094Z,12.25
2023-03-16T08:04:55.646Z,13.73
2023-03-16T08:07:28.269Z,12.73
2023-03-16T08:10:12.277Z,10.48
2023-03-16T08:12:50.067Z,13.57
2023-03-16T08:15:22.392Z,12.77
2023-03-16T08:17:59.296Z,13.00
2023-03-16T08:20:32.286Z,11.30
2023-03-16T08:23:04.343Z,14.23
2023-03-16T08:25:43.309Z,15.80
2023-03-16T08:28:21.749Z,11.63
2023-03-16T08:30:55.720Z,11.23
2023-03-16T08:33:38.690Z,18.67
2023-03-16T08:36:13.847Z,13.70
2023-03-16T08:39:00.068Z,11.48
2023-03-16T08:41:38.138Z,10.13
2023-03-16T08:44:14.217Z,14.38
2023-03-16T08:46:47.398Z,9.23
2023-03-16T08:49:20.837Z,10.07
2023-03-16T08:52:00.802Z,9.32
2023-03-16T08:54:35.635Z,9.27
2023-03-16T08:57:07.727Z,9.45
2023-03-16T08:59:41.742Z,10.27
2023-03-16T09:02:14.822Z,8.90
2023-03-16T09:04:47.236Z,9.48
2023-03-16T09:07:20.546Z,12.70
2023-03-16T09:09:52.781Z,10.50
2023-03-16T09:12:25.051Z,8.38
2023-03-16T09:14:56.858Z,8.68
2023-03-16T09:17:28.648Z,14.07
2023-03-16T09:20:15.064Z,10.48
2023-03-16T09:22:52.210Z,9.45
2023-03-16T09:25:25.467Z,9.13
2023-03-16T09:27:57.299Z,9.32
2023-03-16T09:30:29.775Z,10.18
2023-03-16T09:33:04.926Z,12.07
2023-03-16T09:35:37.266Z,11.32
2023-03-16T09:38:10.194Z,10.02
2023-03-16T09:40:46.691Z,10.68
2023-03-16T09:43:32.305Z,7.85
2023-03-16T09:46:36.266Z,10.48
2023-03-16T09:49:12.306Z,10.73
2023-03-16T09:52:30.221Z,11.32
2023-03-16T09:55:15.312Z,15.15
2023-03-16T09:57:51.050Z,12.32
2023-03-16T10:00:27.956Z,11.93
2023-03-16T10:03:24.193Z,11.68
2023-03-16T10:06:02.260Z,8.85
2023-03-16T10:08:58.577Z,8.88
2023-03-16T10:11:42.777Z,6.43
2023-03-16T10:14:37.957Z,6.07
2023-03-16T10:19:58.972Z,7.88
2023-03-16T10:22:35.698Z,8.10
2023-03-16T10:25:16.459Z,9.98
2023-03-16T10:27:49.124Z,7.05
2023-03-16T10:30:32.486Z,7.18
2023-03-16T10:33:18.446Z,6.82
2023-03-16T10:36:12.595Z,6.30
2023-03-16T10:38:48.321Z,9.30
2023-03-16T10:41:22.739Z,6.82
2023-03-16T10:43:59.838Z,7.05
2023-03-16T10:46:39.416Z,8.48
2023-03-16T10:49:22.157Z,8.63
2023-03-16T10:51:57.215Z,9.50
2023-03-16T10:54:33.750Z,7.80
2023-03-16T10:57:21.011Z,9.07
2023-03-16T10:59:56.744Z,11.05
2023-03-16T11:02:33.396Z,4.47
2023-03-16T11:05:24.692Z,5.68
2023-03-16T11:08:12.023Z,6.80
2023-03-16T11:10:58.238Z,5.00
2023-03-16T11:13:37.695Z,5.18
2023-03-16T11:16:30.609Z,6.22
2023-03-16T11:19:23.677Z,6.43
2023-03-16T11:22:08.596Z,6.50
2023-03-16T11:24:52.548Z,5.95
2023-03-16T11:27:37.565Z,9.07
2023-03-16T11:30:09.776Z,9.50
2023-03-16T11:32:46.922Z,6.45
2023-03-16T11:35:22.515Z,9.10
2023-03-16T11:38:17.744Z,5.05
2023-03-16T11:40:56.072Z,6.57
2023-03-16T11:43:55.406Z,6.43
2023-03-16T11:46:55.586Z,9.35
2023-03-16T11:49:54.881Z,5.32
2023-03-16T11:52:50.247Z,7.15
2023-03-16T11:58:19.720Z,5.20
2023-03-16T12:01:13.264Z,5.43
2023-03-16T12:04:10.275Z,4.97
2023-03-16T12:06:47.972Z,4.68
2023-03-16T12:09:50.727Z,4.53
2023-03-16T12:12:40.570Z,7.10
2023-03-16T12:15:33.293Z,7.65
2023-03-16T12:18:16.736Z,6.25
2023-03-16T12:21:03.498Z,3.90
2023-03-16T12:23:40.821Z,6.25
2023-03-16T12:26:12.598Z,5.25
2023-03-16T12:28:45.122Z,6.47
2023-03-16T12:31:25.614Z,5.07
2023-03-16T12:34:03.085Z,5.85
2023-03-16T12:37:05.586Z,5.25
2023-03-16T12:39:55.363Z,5.88
2023-03-16T12:42:52.177Z,6.53
2023-03-16T12:46:00.926Z,5.13
2023-03-16T12:48:42.786Z,5.50
2023-03-16T12:51:14.613Z,5.13
2023-03-16T12:53:54.866Z,6.28
2023-03-16T12:56:36.471Z,11.40
2023-03-16T12:59:15.363Z,6.50
2023-03-16T13:02:13.057Z,6.32
2023-03-16T13:04:51.546Z,3.65
2023-03-16T13:07:26.377Z,4.07
2023-03-16T13:10:04.286Z,6.75
2023-03-16T13:12:38.214Z,6.13
2023-03-16T13:15:19.519Z,6.05
2023-03-16T13:18:06.615Z,7.45
2023-03-16T13:20:53.605Z,7.30
2023-03-16T13:23:27.560Z,5.90
2023-03-16T13:26:11.056Z,4.93
2023-03-16T13:28:46.095Z,5.45
2023-03-16T13:31:35.950Z,6.97
2023-03-16T13:34:14.775Z,7.97
2023-03-16T13:36:46.675Z,4.90
2023-03-16T13:39:22.318Z,6.03
2023-03-16T13:41:59.559Z,7.97
2023-03-16T13:44:32.549Z,6.45
2023-03-16T13:47:05.322Z,7.15
2023-03-16T13:49:56.905Z,5.47
2023-03-16T13:52:31.576Z,7.85
2023-03-16T13:57:40.841Z,6.07
2023-03-16T14:00:25.428Z,8.52
2023-03-16T14:02:59.200Z,5.95
2023-03-16T14:05:35.270Z,5.50
2023-03-16T14:08:22.597Z,7.38
2023-03-16T14:10:59.828Z,6.00
2023-03-16T14:13:36.263Z,5.95
2023-03-16T14:16:13.410Z,6.68
2023-03-16T14:18:52.651Z,3.78
2023-03-16T14:21:27.406Z,4.57
2023-03-16T14:26:46.616Z,6.20
2023-03-16T14:29:28.208Z,8.73
2023-03-16T14:32:00.259Z,6.32
2023-03-16T14:34:37.223Z,7.70
2023-03-16T14:37:11.849Z,7.00
2023-03-16T14:39:43.568Z,5.28
2023-03-16T14:42:25.989Z,5.45
2023-03-16T14:45:10.991Z,5.72
2023-03-16T14:47:46.458Z,5.63
2023-03-16T14:50:23.984Z,7.03
2023-03-16T14:52:57.271Z,5.53
2023-03-16T14:55:29.390Z,4.65
2023-03-16T14:58:01.777Z,6.13
2023-03-16T15:00:42.817Z,6.88
2023-03-16T15:03:33.220Z,6.30
2023-03-16T15:06:05.209Z,4.72
2023-03-16T15:08:44.316Z,10.57
2023-03-16T15:11:21.308Z,7.47
2023-03-16T15:13:53.833Z,4.57
2023-03-16T15:16:26.031Z,7.03
2023-03-16T15:18:57.788Z,7.70
2023-03-16T15:21:32.306Z,4.60
2023-03-16T15:24:04.067Z,4.78
2023-03-16T15:26:35.969Z,7.65
2023-03-16T15:29:13.654Z,6.05
2023-03-16T15:31:45.706Z,5.18
2023-03-16T15:34:17.481Z,5.43
2023-03-16T15:36:50.004Z,5.65
2023-03-16T15:39:24.913Z,4.53
2023-03-16T15:41:56.868Z,4.22
2023-03-16T15:44:31.709Z,4.70
2023-03-16T15:47:04.561Z,4.95
2023-03-16T15:49:47.164Z,3.25
2023-03-16T15:52:33.273Z,5.25
2023-03-16T15:55:09.424Z,6.57
2023-03-16T15:57:41.323Z,4.47
2023-03-16T16:00:37.452Z,5.18
2023-03-16T16:03:11.698Z,8.02
2023-03-16T16:05:43.394Z,3.55
2023-03-16T16:08:15.429Z,3.67
2023-03-16T16:10:48.758Z,5.03
2023-03-16T16:13:37.469Z,4.38
2023-03-16T16:16:16.073Z,5.78
2023-03-16T16:21:24.510Z,3.88
2023-03-16T16:23:56.847Z,5.57
2023-03-16T16:26:48.300Z,7.00
2023-03-16T16:29:22.609Z,6.25
2023-03-16T16:31:55.437Z,4.88
2023-03-16T16:34:28.024Z,7.22
2023-03-16T16:36:59.787Z,6.90
2023-03-16T16:39:31.468Z,5.32
2023-03-16T16:42:03.384Z,6.15
2023-03-16T16:44:37.623Z,7.45
2023-03-16T16:49:52.740Z,5.95
2023-03-16T16:52:24.546Z,7.05
2023-03-16T16:54:56.217Z,5.70
2023-03-16T16:57:27.910Z,6.15
2023-03-16T17:00:00.664Z,5.68
2023-03-16T17:02:43.390Z,8.18
2023-03-16T17:05:26.973Z,12.70
2023-03-16T17:08:04.080Z,7.90
2023-03-16T17:10:37.787Z,7.10
2023-03-16T17:13:26.360Z,7.35
2023-03-16T17:15:58.862Z,8.98
2023-03-16T17:18:30.660Z,7.65
2023-03-16T17:21:02.505Z,7.75
2023-03-16T17:23:37.234Z,9.60
2023-03-16T17:26:28.869Z,8.32
2023-03-16T17:29:05.325Z,10.75
2023-03-16T17:31:41.749Z,10.55
2023-03-16T17:34:23.214Z,8.45
2023-03-16T17:36:58.448Z,10.63
2023-03-16T17:39:36.453Z,9.88
2023-03-16T17:42:18.471Z,13.25
2023-03-16T17:44:52.415Z,8.65
2023-03-16T17:47:31.214Z,7.90
2023-03-16T17:50:02.959Z,10.60
2023-03-16T17:52:37.157Z,9.75
2023-03-16T17:55:09.123Z,15.48
2023-03-16T17:57:41.136Z,12.95
2023-03-16T18:00:23.439Z,11.88
2023-03-16T18:02:58.749Z,9.88
2023-03-16T18:05:35.536Z,9.88
2023-03-16T18:08:13.483Z,12.00
2023-03-16T18:10:46.842Z,10.13
2023-03-16T18:13:27.582Z,13.15
2023-03-16T18:16:02.894Z,9.95
2023-03-16T18:18:38.417Z,12.07
2023-03-16T18:21:21.741Z,9.18
2023-03-16T18:23:54.132Z,10.10
2023-03-16T18:26:27.527Z,15.18
2023-03-16T18:28:59.351Z,13.10
2023-03-16T18:31:31.172Z,14.90
2023-03-16T18:34:06.363Z,9.77
2023-03-16T18:36:43.072Z,14.98
2023-03-16T18:39:19.162Z,10.88
2023-03-16T18:41:51.094Z,11.70
2023-03-16T18:44:25.884Z,13.10
2023-03-16T18:49:35.842Z,9.50
2023-03-16T18:52:28.424Z,9.85
2023-03-16T18:55:00.159Z,10.98
2023-03-16T18:57:32.473Z,8.32
2023-03-16T19:00:04.693Z,10.15
2023-03-16T19:02:39.065Z,12.57
2023-03-16T19:05:15.638Z,9.95
2023-03-16T19:07:50.255Z,12.88
2023-03-16T19:10:25.978Z,11.27
2023-03-16T19:12:58.416Z,14.13
2023-03-16T19:15:34.501Z,14.93
2023-03-16T19:18:06.322Z,12.05
2023-03-16T19:20:38.827Z,12.88
2023-03-16T19:23:23.597Z,16.38
2023-03-16T19:25:56.057Z,9.35
2023-03-16T19:28:34.807Z,13.48
2023-03-16T19:31:16.669Z,13.55
2023-03-16T19:33:49.551Z,13.23
2023-03-16T19:36:32.276Z,9.50
2023-03-16T19:39:04.261Z,13.40
2023-03-16T19:41:37.812Z,14.48
2023-03-16T19:44:20.606Z,11.13
2023-03-16T19:46:52.623Z,13.75
2023-03-16T19:49:27.094Z,15.70
2023-03-16T19:51:58.800Z,11.90
2023-03-16T19:54:34.097Z,13.48
2023-03-16T19:57:14.303Z,12.73
2023-03-16T19:59:50.262Z,14.90
2023-03-16T20:02:34.701Z,14.20
2023-03-16T20:05:07.882Z,13.77
2023-03-16T20:07:39.569Z,13.27
2023-03-16T20:10:23.664Z,14.10
2023-03-16T20:13:00.614Z,17.10
2023-03-16T20:15:33.252Z,14.07
2023-03-16T20:18:13.232Z,13.10
2023-03-16T20:20:46.176Z,12.52
2023-03-16T20:23:26.582Z,15.75
2023-03-16T20:26:02.642Z,14.85
2023-03-16T20:28:36.969Z,14.60
2023-03-16T20:31:17.408Z,14.90
2023-03-16T20:33:50.737Z,12.10
2023-03-16T20:36:24.175Z,11.13
2023-03-16T20:38:56.057Z,14.27
2023-03-16T20:41:32.770Z,13.18
2023-03-16T20:44:05.003Z,13.95
2023-03-16T20:46:41.245Z,13.25
2023-03-16T20:49:22.607Z,12.18
2023-03-16T20:51:54.330Z,13.80
2023-03-16T20:54:26.120Z,15.02
2023-03-16T20:56:57.872Z,12.35
2023-03-16T20:59:30.426Z,13.65
2023-03-16T21:02:03.216Z,12.77
2023-03-16T21:04:34.914Z,16.23
2023-03-16T21:07:06.910Z,14.90
2023-03-16T21:09:38.556Z,15.52
2023-03-16T21:12:34.815Z,15.60
2023-03-16T21:15:29.280Z,11.90
2023-03-16T21:18:06.464Z,16.27
2023-03-16T21:20:38.216Z,14.45
2023-03-16T21:23:19.198Z,15.65
2023-03-16T21:25:56.787Z,15.05
2023-03-16T21:28:32.492Z,15.10
2023-03-16T21:31:05.237Z,10.93
2023-03-16T21:33:43.268Z,15.55
2023-03-16T21:36:18.170Z,11.57
2023-03-16T21:41:22.936Z,13.18
2023-03-16T21:43:55.020Z,14.65
2023-03-16T21:46:29.837Z,14.65
2023-03-16T21:49:03.662Z,12.82
2023-03-16T21:51:36.289Z,13.45
2023-03-16T21:54:13.531Z,12.20
2023-03-16T21:56:46.465Z,12.90
2023-03-16T21:59:18.162Z,13.35
2023-03-16T22:02:01.088Z,14.30
2023-03-16T22:04:33.689Z,11.43
2023-03-16T22:07:11.633Z,9.68
2023-03-16T22:09:43.408Z,14.27
2023-03-16T22:12:15.812Z,14.25
2023-03-16T22:14:48.345Z,16.85
2023-03-16T22:17:22.280Z,18.15
2023-03-16T22:19:54.072Z,18.63
2023-03-16T22:22:27.283Z,17.10
2023-03-16T22:24:58.950Z,18.25
2023-03-16T22:27:30.630Z,13.60
2023-03-16T22:30:03.423Z,16.17
2023-03-16T22:32:35.583Z,13.02
2023-03-16T22:35:13.919Z,12.57
2023-03-16T22:37:45.745Z,14.30
2023-03-16T22:40:18.985Z,12.55
2023-03-16T22:42:50.760Z,13.60
2023-03-16T22:45:25.018Z,14.05
2023-03-16T22:47:58.508Z,17.63
2023-03-16T22:50:35.209Z,14.93
2023-03-16T22:53:08.898Z,15.13
2023-03-16T22:55:40.723Z,15.73
2023-03-16T22:58:32.552Z,13.00
2023-03-16T23:01:21.731Z,13.63
2023-03-16T23:03:53.784Z,15.82
2023-03-16T23:06:31.483Z,14.02
2023-03-16T23:09:03.639Z,13.20
2023-03-16T23:11:36.461Z,13.40
2023-03-16T23:14:16.899Z,14.52
2023-03-16T23:16:49.354Z,13.50
2023-03-16T23:19:33.902Z,13.70
2023-03-16T23:22:07.225Z,12.73
2023-03-16T23:24:39.852Z,10.57
2023-03-16T23:27:21.415Z,11.93
2023-03-16T23:29:53.220Z,11.25
2023-03-16T23:32:24.888Z,14.35
2023-03-16T23:34:56.539Z,13.25
2023-03-16T23:37:28.312Z,12.15
2023-03-16T23:39:59.992Z,14.73
2023-03-16T23:42:31.715Z,12.82
2023-03-16T23:45:10.200Z,12.05
2023-03-16T23:47:42.132Z,14.45
2023-03-16T23:50:17.556Z,12.43
2023-03-16T23:52:49.287Z,15.18
2023-03-16T23:55:21.457Z,11.82
2023-03-16T23:57:53.166Z,14.32
